sensor_id;sensor_type;location;lat;lon;timestamp;temperature;humidity
3298;DHT22;1661;53.572;10.174;2023-05-29T00:01:02;15.00;67.90
3298;DHT22;1661;53.572;10.174;2023-05-29T00:03:28;15.00;66.40
3298;DHT22;1661;53.572;10.174;2023-05-29T00:05:58;14.80;67.10
3298;DHT22;1661;53.572;10.174;2023-05-29T00:08:27;14.80;68.00
3298;DHT22;1661;53.572;10.174;2023-05-29T00:10:56;14.80;67.70
3298;DHT22;1661;53.572;10.174;2023-05-29T00:13:23;14.80;67.60
3298;DHT22;1661;53.572;10.174;2023-05-29T00:15:50;14.80;67.80
3298;DHT22;1661;53.572;10.174;2023-05-29T00:18:17;14.90;67.00
3298;DHT22;1661;53.572;10.174;2023-05-29T00:20:44;14.80;67.20
3298;DHT22;1661;53.572;10.174;2023-05-29T00:23:11;14.80;67.60
3298;DHT22;1661;53.572;10.174;2023-05-29T00:25:39;14.80;67.50
3298;DHT22;1661;53.572;10.174;2023-05-29T00:28:06;14.80;67.30
3298;DHT22;1661;53.572;10.174;2023-05-29T00:30:34;14.70;65.40
3298;DHT22;1661;53.572;10.174;2023-05-29T00:33:01;14.60;65.80
3298;DHT22;1661;53.572;10.174;2023-05-29T00:35:27;14.40;67.10
3298;DHT22;1661;53.572;10.174;2023-05-29T00:37:54;14.40;66.60
3298;DHT22;1661;53.572;10.174;2023-05-29T00:40:25;14.30;68.10
3298;DHT22;1661;53.572;10.174;2023-05-29T00:42:53;14.30;69.30
3298;DHT22;1661;53.572;10.174;2023-05-29T00:45:20;14.30;68.70
3298;DHT22;1661;53.572;10.174;2023-05-29T00:47:50;14.30;67.10
3298;DHT22;1661;53.572;10.174;2023-05-29T00:50:17;14.20;66.70
3298;DHT22;1661;53.572;10.174;2023-05-29T00:52:45;14.20;68.30
3298;DHT22;1661;53.572;10.174;2023-05-29T00:55:12;14.10;68.70
3298;DHT22;1661;53.572;10.174;2023-05-29T00:57:40;14.10;68.70
3298;DHT22;1661;53.572;10.174;2023-05-29T01:00:09;14.10;68.70
3298;DHT22;1661;53.572;10.174;2023-05-29T01:02:40;14.10;68.30
3298;DHT22;1661;53.572;10.174;2023-05-29T01:05:09;14.00;68.40
3298;DHT22;1661;53.572;10.174;2023-05-29T01:07:37;14.00;68.20
3298;DHT22;1661;53.572;10.174;2023-05-29T01:10:07;13.90;68.20
3298;DHT22;1661;53.572;10.174;2023-05-29T01:12:38;13.80;69.00
3298;DHT22;1661;53.572;10.174;2023-05-29T01:15:28;13.80;69.40
3298;DHT22;1661;53.572;10.174;2023-05-29T01:18:08;13.80;68.90
3298;DHT22;1661;53.572;10.174;2023-05-29T01:20:48;13.80;69.40
3298;DHT22;1661;53.572;10.174;2023-05-29T01:23:33;13.80;69.10
3298;DHT22;1661;53.572;10.174;2023-05-29T01:26:20;13.80;69.00
3298;DHT22;1661;53.572;10.174;2023-05-29T01:28:55;13.80;69.20
3298;DHT22;1661;53.572;10.174;2023-05-29T01:31:25;13.70;68.70
3298;DHT22;1661;53.572;10.174;2023-05-29T01:33:53;13.60;68.30
3298;DHT22;1661;53.572;10.174;2023-05-29T01:36:20;13.60;68.20
3298;DHT22;1661;53.572;10.174;2023-05-29T01:38:47;13.50;69.00
3298;DHT22;1661;53.572;10.174;2023-05-29T01:41:14;13.50;69.20
3298;DHT22;1661;53.572;10.174;2023-05-29T01:43:43;13.40;69.20
3298;DHT22;1661;53.572;10.174;2023-05-29T01:46:12;13.40;69.30
3298;DHT22;1661;53.572;10.174;2023-05-29T01:48:40;13.40;69.50
3298;DHT22;1661;53.572;10.174;2023-05-29T01:51:07;13.40;69.40
3298;DHT22;1661;53.572;10.174;2023-05-29T01:53:37;13.30;68.90
3298;DHT22;1661;53.572;10.174;2023-05-29T01:56:05;13.30;69.50
3298;DHT22;1661;53.572;10.174;2023-05-29T01:58:32;13.20;69.30
3298;DHT22;1661;53.572;10.174;2023-05-29T02:01:00;13.10;69.40
3298;DHT22;1661;53.572;10.174;2023-05-29T02:03:30;13.10;69.30
3298;DHT22;1661;53.572;10.174;2023-05-29T02:05:57;13.10;69.40
3298;DHT22;1661;53.572;10.174;2023-05-29T02:08:27;13.00;69.70
3298;DHT22;1661;53.572;10.174;2023-05-29T02:10:54;13.00;69.90
3298;DHT22;1661;53.572;10.174;2023-05-29T02:13:21;12.90;70.00
3298;DHT22;1661;53.572;10.174;2023-05-29T02:15:48;12.90;69.70
3298;DHT22;1661;53.572;10.174;2023-05-29T02:18:15;12.90;69.90
3298;DHT22;1661;53.572;10.174;2023-05-29T02:20:44;12.80;69.50
3298;DHT22;1661;53.572;10.174;2023-05-29T02:23:11;12.70;69.90
3298;DHT22;1661;53.572;10.174;2023-05-29T02:25:38;12.70;70.20
3298;DHT22;1661;53.572;10.174;2023-05-29T02:28:06;12.60;70.10
3298;DHT22;1661;53.572;10.174;2023-05-29T02:30:33;12.60;69.90
3298;DHT22;1661;53.572;10.174;2023-05-29T02:32:59;12.50;70.30
3298;DHT22;1661;53.572;10.174;2023-05-29T02:35:26;12.40;70.20
3298;DHT22;1661;53.572;10.174;2023-05-29T02:37:57;12.40;70.80
3298;DHT22;1661;53.572;10.174;2023-05-29T02:40:24;12.30;70.80
3298;DHT22;1661;53.572;10.174;2023-05-29T02:42:50;12.30;70.90
3298;DHT22;1661;53.572;10.174;2023-05-29T02:45:17;12.20;70.00
3298;DHT22;1661;53.572;10.174;2023-05-29T02:47:44;12.00;70.50
3298;DHT22;1661;53.572;10.174;2023-05-29T02:50:11;12.00;70.80
3298;DHT22;1661;53.572;10.174;2023-05-29T02:52:40;11.90;71.50
3298;DHT22;1661;53.572;10.174;2023-05-29T02:55:08;11.80;71.20
3298;DHT22;1661;53.572;10.174;2023-05-29T02:57:35;11.70;71.80
3298;DHT22;1661;53.572;10.174;2023-05-29T03:00:03;11.70;72.20
3298;DHT22;1661;53.572;10.174;2023-05-29T03:02:31;11.70;72.30
3298;DHT22;1661;53.572;10.174;2023-05-29T03:04:58;11.70;72.00
3298;DHT22;1661;53.572;10.174;2023-05-29T03:07:26;11.70;72.00
3298;DHT22;1661;53.572;10.174;2023-05-29T03:09:56;11.50;71.70
3298;DHT22;1661;53.572;10.174;2023-05-29T03:12:24;11.50;72.20
3298;DHT22;1661;53.572;10.174;2023-05-29T03:14:53;11.40;72.60
3298;DHT22;1661;53.572;10.174;2023-05-29T03:17:22;11.30;73.00
3298;DHT22;1661;53.572;10.174;2023-05-29T03:19:48;11.30;72.40
3298;DHT22;1661;53.572;10.174;2023-05-29T03:22:16;11.20;73.30
3298;DHT22;1661;53.572;10.174;2023-05-29T03:24:43;11.30;73.30
3298;DHT22;1661;53.572;10.174;2023-05-29T03:27:10;11.30;72.80
3298;DHT22;1661;53.572;10.174;2023-05-29T03:29:38;11.20;73.00
3298;DHT22;1661;53.572;10.174;2023-05-29T03:32:05;11.20;73.20
3298;DHT22;1661;53.572;10.174;2023-05-29T03:34:31;11.30;73.00
3298;DHT22;1661;53.572;10.174;2023-05-29T03:36:59;11.20;72.30
3298;DHT22;1661;53.572;10.174;2023-05-29T03:39:27;11.00;72.60
3298;DHT22;1661;53.572;10.174;2023-05-29T03:41:54;10.90;73.80
3298;DHT22;1661;53.572;10.174;2023-05-29T03:44:21;10.90;73.60
3298;DHT22;1661;53.572;10.174;2023-05-29T03:46:49;10.90;73.70
3298;DHT22;1661;53.572;10.174;2023-05-29T03:49:16;10.80;73.60
3298;DHT22;1661;53.572;10.174;2023-05-29T03:51:43;10.70;74.10
3298;DHT22;1661;53.572;10.174;2023-05-29T03:54:10;10.70;74.20
3298;DHT22;1661;53.572;10.174;2023-05-29T03:56:36;10.70;74.70
3298;DHT22;1661;53.572;10.174;2023-05-29T03:59:03;10.80;74.60
3298;DHT22;1661;53.572;10.174;2023-05-29T04:01:30;10.80;74.40
3298;DHT22;1661;53.572;10.174;2023-05-29T04:03:58;10.80;73.90
3298;DHT22;1661;53.572;10.174;2023-05-29T04:06:25;10.90;74.30
3298;DHT22;1661;53.572;10.174;2023-05-29T04:08:52;10.90;73.90
3298;DHT22;1661;53.572;10.174;2023-05-29T04:11:19;10.90;73.90
3298;DHT22;1661;53.572;10.174;2023-05-29T04:13:47;10.80;73.60
3298;DHT22;1661;53.572;10.174;2023-05-29T04:16:15;10.70;74.20
3298;DHT22;1661;53.572;10.174;2023-05-29T04:18:41;10.80;74.30
3298;DHT22;1661;53.572;10.174;2023-05-29T04:21:12;10.80;74.20
3298;DHT22;1661;53.572;10.174;2023-05-29T04:23:39;11.00;74.00
3298;DHT22;1661;53.572;10.174;2023-05-29T04:26:05;10.90;73.60
3298;DHT22;1661;53.572;10.174;2023-05-29T04:28:32;10.90;73.60
3298;DHT22;1661;53.572;10.174;2023-05-29T04:30:59;10.70;74.30
3298;DHT22;1661;53.572;10.174;2023-05-29T04:33:26;10.60;74.40
3298;DHT22;1661;53.572;10.174;2023-05-29T04:35:53;10.70;74.80
3298;DHT22;1661;53.572;10.174;2023-05-29T04:38:21;10.70;74.70
3298;DHT22;1661;53.572;10.174;2023-05-29T04:40:56;10.70;74.70
3298;DHT22;1661;53.572;10.174;2023-05-29T04:43:24;10.80;74.60
3298;DHT22;1661;53.572;10.174;2023-05-29T04:45:51;10.80;74.40
3298;DHT22;1661;53.572;10.174;2023-05-29T04:48:18;10.80;74.30
3298;DHT22;1661;53.572;10.174;2023-05-29T04:50:45;10.70;74.00
3298;DHT22;1661;53.572;10.174;2023-05-29T04:53:14;10.70;74.40
3298;DHT22;1661;53.572;10.174;2023-05-29T04:55:42;10.70;74.30
3298;DHT22;1661;53.572;10.174;2023-05-29T04:58:12;10.70;74.80
3298;DHT22;1661;53.572;10.174;2023-05-29T05:00:42;10.80;74.40
3298;DHT22;1661;53.572;10.174;2023-05-29T05:03:09;10.70;74.80
3298;DHT22;1661;53.572;10.174;2023-05-29T05:05:44;10.70;74.80
3298;DHT22;1661;53.572;10.174;2023-05-29T05:08:11;10.70;74.90
3298;DHT22;1661;53.572;10.174;2023-05-29T05:10:38;10.70;74.80
3298;DHT22;1661;53.572;10.174;2023-05-29T05:13:06;10.80;74.70
3298;DHT22;1661;53.572;10.174;2023-05-29T05:15:33;11.00;74.60
3298;DHT22;1661;53.572;10.174;2023-05-29T05:18:00;11.10;73.90
3298;DHT22;1661;53.572;10.174;2023-05-29T05:20:27;11.10;73.80
3298;DHT22;1661;53.572;10.174;2023-05-29T05:22:56;11.10;74.00
3298;DHT22;1661;53.572;10.174;2023-05-29T05:25:25;11.10;73.70
3298;DHT22;1661;53.572;10.174;2023-05-29T05:27:52;11.20;73.30
3298;DHT22;1661;53.572;10.174;2023-05-29T05:30:20;11.30;73.20
3298;DHT22;1661;53.572;10.174;2023-05-29T05:32:47;11.30;72.90
3298;DHT22;1661;53.572;10.174;2023-05-29T05:35:13;11.40;72.90
3298;DHT22;1661;53.572;10.174;2023-05-29T05:37:41;11.40;72.90
3298;DHT22;1661;53.572;10.174;2023-05-29T05:40:11;11.50;72.30
3298;DHT22;1661;53.572;10.174;2023-05-29T05:42:38;11.40;71.80
3298;DHT22;1661;53.572;10.174;2023-05-29T05:45:10;11.50;72.30
3298;DHT22;1661;53.572;10.174;2023-05-29T05:47:38;11.60;72.00
3298;DHT22;1661;53.572;10.174;2023-05-29T05:50:06;11.80;72.20
3298;DHT22;1661;53.572;10.174;2023-05-29T05:52:33;11.70;70.30
3298;DHT22;1661;53.572;10.174;2023-05-29T05:54:59;11.70;71.30
3298;DHT22;1661;53.572;10.174;2023-05-29T05:57:26;11.80;71.70
3298;DHT22;1661;53.572;10.174;2023-05-29T05:59:57;12.10;71.20
3298;DHT22;1661;53.572;10.174;2023-05-29T06:02:24;12.10;70.00
3298;DHT22;1661;53.572;10.174;2023-05-29T06:04:52;12.30;70.70
3298;DHT22;1661;53.572;10.174;2023-05-29T06:07:19;12.50;69.90
3298;DHT22;1661;53.572;10.174;2023-05-29T06:09:46;12.70;68.80
3298;DHT22;1661;53.572;10.174;2023-05-29T06:12:19;12.80;68.40
3298;DHT22;1661;53.572;10.174;2023-05-29T06:14:46;13.00;68.40
3298;DHT22;1661;53.572;10.174;2023-05-29T06:17:13;13.00;67.30
3298;DHT22;1661;53.572;10.174;2023-05-29T06:19:39;12.90;67.70
3298;DHT22;1661;53.572;10.174;2023-05-29T06:22:08;13.10;67.90
3298;DHT22;1661;53.572;10.174;2023-05-29T06:24:34;13.10;66.80
3298;DHT22;1661;53.572;10.174;2023-05-29T06:27:01;13.10;68.60
3298;DHT22;1661;53.572;10.174;2023-05-29T06:29:28;13.30;68.30
3298;DHT22;1661;53.572;10.174;2023-05-29T06:31:55;13.40;66.70
3298;DHT22;1661;53.572;10.174;2023-05-29T06:34:22;13.60;67.20
3298;DHT22;1661;53.572;10.174;2023-05-29T06:36:49;13.80;65.20
3298;DHT22;1661;53.572;10.174;2023-05-29T06:39:17;14.00;65.40
3298;DHT22;1661;53.572;10.174;2023-05-29T06:41:51;14.10;65.20
3298;DHT22;1661;53.572;10.174;2023-05-29T06:44:18;14.30;64.30
3298;DHT22;1661;53.572;10.174;2023-05-29T06:46:45;14.20;64.10
3298;DHT22;1661;53.572;10.174;2023-05-29T06:49:11;14.30;64.90
3298;DHT22;1661;53.572;10.174;2023-05-29T06:51:38;14.50;64.80
3298;DHT22;1661;53.572;10.174;2023-05-29T06:54:05;14.80;63.10
3298;DHT22;1661;53.572;10.174;2023-05-29T06:56:33;15.00;62.50
3298;DHT22;1661;53.572;10.174;2023-05-29T06:59:00;15.10;62.00
3298;DHT22;1661;53.572;10.174;2023-05-29T07:01:27;15.30;61.90
3298;DHT22;1661;53.572;10.174;2023-05-29T07:03:54;15.50;60.30
3298;DHT22;1661;53.572;10.174;2023-05-29T07:06:20;15.70;60.50
3298;DHT22;1661;53.572;10.174;2023-05-29T07:08:47;15.90;58.70
3298;DHT22;1661;53.572;10.174;2023-05-29T07:11:14;15.90;58.10
3298;DHT22;1661;53.572;10.174;2023-05-29T07:13:42;15.80;57.90
3298;DHT22;1661;53.572;10.174;2023-05-29T07:16:09;15.90;57.90
3298;DHT22;1661;53.572;10.174;2023-05-29T07:18:36;15.90;59.10
3298;DHT22;1661;53.572;10.174;2023-05-29T07:21:03;16.00;59.20
3298;DHT22;1661;53.572;10.174;2023-05-29T07:23:30;16.00;58.10
3298;DHT22;1661;53.572;10.174;2023-05-29T07:25:57;16.20;58.60
3298;DHT22;1661;53.572;10.174;2023-05-29T07:28:24;16.40;57.60
3298;DHT22;1661;53.572;10.174;2023-05-29T07:30:57;16.50;57.60
3298;DHT22;1661;53.572;10.174;2023-05-29T07:33:24;16.60;57.90
3298;DHT22;1661;53.572;10.174;2023-05-29T07:35:51;16.70;58.20
3298;DHT22;1661;53.572;10.174;2023-05-29T07:38:18;16.90;57.50
3298;DHT22;1661;53.572;10.174;2023-05-29T07:40:45;17.00;56.60
3298;DHT22;1661;53.572;10.174;2023-05-29T07:43:11;17.10;56.60
3298;DHT22;1661;53.572;10.174;2023-05-29T07:45:38;16.90;56.00
3298;DHT22;1661;53.572;10.174;2023-05-29T07:48:06;16.90;57.70
3298;DHT22;1661;53.572;10.174;2023-05-29T07:50:33;17.00;58.70
3298;DHT22;1661;53.572;10.174;2023-05-29T07:53:00;17.10;57.40
3298;DHT22;1661;53.572;10.174;2023-05-29T07:55:27;16.90;55.30
3298;DHT22;1661;53.572;10.174;2023-05-29T07:57:54;16.70;55.90
3298;DHT22;1661;53.572;10.174;2023-05-29T08:00:20;16.90;59.10
3298;DHT22;1661;53.572;10.174;2023-05-29T08:02:50;16.70;56.20
3298;DHT22;1661;53.572;10.174;2023-05-29T08:05:18;16.80;54.40
3298;DHT22;1661;53.572;10.174;2023-05-29T08:07:45;16.80;56.20
3298;DHT22;1661;53.572;10.174;2023-05-29T08:10:13;17.00;56.70
3298;DHT22;1661;53.572;10.174;2023-05-29T08:12:40;17.00;56.80
3298;DHT22;1661;53.572;10.174;2023-05-29T08:15:13;17.20;54.50
3298;DHT22;1661;53.572;10.174;2023-05-29T08:17:44;17.40;57.80
3298;DHT22;1661;53.572;10.174;2023-05-29T08:20:11;17.80;56.40
3298;DHT22;1661;53.572;10.174;2023-05-29T08:22:43;17.90;52.60
3298;DHT22;1661;53.572;10.174;2023-05-29T08:25:12;18.00;54.30
3298;DHT22;1661;53.572;10.174;2023-05-29T08:27:38;17.70;53.80
3298;DHT22;1661;53.572;10.174;2023-05-29T08:30:06;17.70;56.70
3298;DHT22;1661;53.572;10.174;2023-05-29T08:32:33;17.90;55.30
3298;DHT22;1661;53.572;10.174;2023-05-29T08:35:00;17.70;52.70
3298;DHT22;1661;53.572;10.174;2023-05-29T08:37:27;17.40;53.80
3298;DHT22;1661;53.572;10.174;2023-05-29T08:39:55;17.60;53.50
3298;DHT22;1661;53.572;10.174;2023-05-29T08:42:28;17.70;55.10
3298;DHT22;1661;53.572;10.174;2023-05-29T08:45:02;17.70;53.90
3298;DHT22;1661;53.572;10.174;2023-05-29T08:47:31;18.00;54.10
3298;DHT22;1661;53.572;10.174;2023-05-29T08:50:00;18.20;56.30
3298;DHT22;1661;53.572;10.174;2023-05-29T08:52:30;18.60;54.60
3298;DHT22;1661;53.572;10.174;2023-05-29T08:55:02;18.90;56.90
3298;DHT22;1661;53.572;10.174;2023-05-29T08:57:30;18.70;51.10
3298;DHT22;1661;53.572;10.174;2023-05-29T08:59:57;18.80;50.50
3298;DHT22;1661;53.572;10.174;2023-05-29T09:02:24;18.90;51.30
3298;DHT22;1661;53.572;10.174;2023-05-29T09:04:52;18.80;52.40
3298;DHT22;1661;53.572;10.174;2023-05-29T09:07:20;19.10;50.50
3298;DHT22;1661;53.572;10.174;2023-05-29T09:09:47;19.30;52.10
3298;DHT22;1661;53.572;10.174;2023-05-29T09:12:16;19.50;52.50
3298;DHT22;1661;53.572;10.174;2023-05-29T09:14:44;19.50;50.10
3298;DHT22;1661;53.572;10.174;2023-05-29T09:17:12;19.80;50.80
3298;DHT22;1661;53.572;10.174;2023-05-29T09:19:41;20.20;51.50
3298;DHT22;1661;53.572;10.174;2023-05-29T09:22:09;20.60;54.30
3298;DHT22;1661;53.572;10.174;2023-05-29T09:24:37;20.70;47.60
3298;DHT22;1661;53.572;10.174;2023-05-29T09:27:08;20.80;49.40
3298;DHT22;1661;53.572;10.174;2023-05-29T09:29:39;20.80;48.30
3298;DHT22;1661;53.572;10.174;2023-05-29T09:32:09;20.20;50.10
3298;DHT22;1661;53.572;10.174;2023-05-29T09:34:37;20.50;51.10
3298;DHT22;1661;53.572;10.174;2023-05-29T09:37:05;20.70;49.40
3298;DHT22;1661;53.572;10.174;2023-05-29T09:39:44;20.70;52.60
3298;DHT22;1661;53.572;10.174;2023-05-29T09:42:10;20.70;48.40
3298;DHT22;1661;53.572;10.174;2023-05-29T09:44:39;20.90;46.70
3298;DHT22;1661;53.572;10.174;2023-05-29T09:47:06;21.00;49.50
3298;DHT22;1661;53.572;10.174;2023-05-29T09:49:34;20.90;46.60
3298;DHT22;1661;53.572;10.174;2023-05-29T09:52:04;21.10;47.20
3298;DHT22;1661;53.572;10.174;2023-05-29T09:54:35;21.50;53.10
3298;DHT22;1661;53.572;10.174;2023-05-29T09:57:03;22.10;50.00
3298;DHT22;1661;53.572;10.174;2023-05-29T09:59:31;22.20;47.00
3298;DHT22;1661;53.572;10.174;2023-05-29T10:02:02;22.40;46.10
3298;DHT22;1661;53.572;10.174;2023-05-29T10:04:30;22.50;47.10
3298;DHT22;1661;53.572;10.174;2023-05-29T10:07:01;22.60;44.60
3298;DHT22;1661;53.572;10.174;2023-05-29T10:09:30;22.50;43.00
3298;DHT22;1661;53.572;10.174;2023-05-29T10:12:03;22.60;43.10
3298;DHT22;1661;53.572;10.174;2023-05-29T10:14:33;22.90;43.70
3298;DHT22;1661;53.572;10.174;2023-05-29T10:17:07;23.00;45.60
3298;DHT22;1661;53.572;10.174;2023-05-29T10:19:36;23.20;44.60
3298;DHT22;1661;53.572;10.174;2023-05-29T10:22:04;23.50;43.40
3298;DHT22;1661;53.572;10.174;2023-05-29T10:24:44;23.30;41.20
3298;DHT22;1661;53.572;10.174;2023-05-29T10:27:12;23.40;44.80
3298;DHT22;1661;53.572;10.174;2023-05-29T10:29:46;23.50;40.20
3298;DHT22;1661;53.572;10.174;2023-05-29T10:32:21;23.20;41.10
3298;DHT22;1661;53.572;10.174;2023-05-29T10:35:00;23.10;41.90
3298;DHT22;1661;53.572;10.174;2023-05-29T10:37:35;23.30;40.80
3298;DHT22;1661;53.572;10.174;2023-05-29T10:40:05;23.20;40.90
3298;DHT22;1661;53.572;10.174;2023-05-29T10:42:47;23.10;43.00
3298;DHT22;1661;53.572;10.174;2023-05-29T10:45:49;23.30;40.50
3298;DHT22;1661;53.572;10.174;2023-05-29T10:48:45;23.60;43.90
3298;DHT22;1661;53.572;10.174;2023-05-29T10:51:26;23.40;44.50
3298;DHT22;1661;53.572;10.174;2023-05-29T10:53:53;23.70;45.00
3298;DHT22;1661;53.572;10.174;2023-05-29T10:56:22;23.80;42.30
3298;DHT22;1661;53.572;10.174;2023-05-29T10:58:57;24.10;42.20
3298;DHT22;1661;53.572;10.174;2023-05-29T11:01:27;24.30;38.20
3298;DHT22;1661;53.572;10.174;2023-05-29T11:04:25;24.30;40.40
3298;DHT22;1661;53.572;10.174;2023-05-29T11:06:56;24.50;40.00
3298;DHT22;1661;53.572;10.174;2023-05-29T11:09:30;24.80;43.10
3298;DHT22;1661;53.572;10.174;2023-05-29T11:12:11;24.90;40.00
3298;DHT22;1661;53.572;10.174;2023-05-29T11:14:45;25.10;41.00
3298;DHT22;1661;53.572;10.174;2023-05-29T11:17:30;25.20;47.30
3298;DHT22;1661;53.572;10.174;2023-05-29T11:20:01;25.00;33.90
3298;DHT22;1661;53.572;10.174;2023-05-29T11:22:53;24.90;41.30
3298;DHT22;1661;53.572;10.174;2023-05-29T11:25:23;25.00;39.20
3298;DHT22;1661;53.572;10.174;2023-05-29T11:27:52;25.20;40.70
3298;DHT22;1661;53.572;10.174;2023-05-29T11:30:19;25.20;37.30
3298;DHT22;1661;53.572;10.174;2023-05-29T11:32:47;25.10;39.20
3298;DHT22;1661;53.572;10.174;2023-05-29T11:35:21;25.20;42.00
3298;DHT22;1661;53.572;10.174;2023-05-29T11:37:48;25.40;38.60
3298;DHT22;1661;53.572;10.174;2023-05-29T11:40:19;25.50;37.90
3298;DHT22;1661;53.572;10.174;2023-05-29T11:42:46;25.60;38.10
3298;DHT22;1661;53.572;10.174;2023-05-29T11:45:15;25.20;37.30
3298;DHT22;1661;53.572;10.174;2023-05-29T11:47:54;25.30;42.50
3298;DHT22;1661;53.572;10.174;2023-05-29T11:50:25;25.40;40.80
3298;DHT22;1661;53.572;10.174;2023-05-29T11:52:52;25.60;45.40
3298;DHT22;1661;53.572;10.174;2023-05-29T11:55:20;25.60;34.70
3298;DHT22;1661;53.572;10.174;2023-05-29T11:57:47;25.60;39.80
3298;DHT22;1661;53.572;10.174;2023-05-29T12:00:15;25.80;40.60
3298;DHT22;1661;53.572;10.174;2023-05-29T12:02:42;26.00;43.30
3298;DHT22;1661;53.572;10.174;2023-05-29T12:05:13;26.10;38.20
3298;DHT22;1661;53.572;10.174;2023-05-29T12:07:48;25.80;45.00
3298;DHT22;1661;53.572;10.174;2023-05-29T12:10:17;26.00;35.70
3298;DHT22;1661;53.572;10.174;2023-05-29T12:12:47;25.50;38.10
3298;DHT22;1661;53.572;10.174;2023-05-29T12:15:14;25.60;38.60
3298;DHT22;1661;53.572;10.174;2023-05-29T12:17:43;25.70;39.10
3298;DHT22;1661;53.572;10.174;2023-05-29T12:20:11;25.90;36.20
3298;DHT22;1661;53.572;10.174;2023-05-29T12:22:41;26.00;37.70
3298;DHT22;1661;53.572;10.174;2023-05-29T12:25:11;26.10;35.50
3298;DHT22;1661;53.572;10.174;2023-05-29T12:27:38;26.00;37.20
3298;DHT22;1661;53.572;10.174;2023-05-29T12:30:09;26.10;38.80
3298;DHT22;1661;53.572;10.174;2023-05-29T12:32:37;26.30;37.40
3298;DHT22;1661;53.572;10.174;2023-05-29T12:35:15;26.50;37.30
3298;DHT22;1661;53.572;10.174;2023-05-29T12:37:43;26.50;37.60
3298;DHT22;1661;53.572;10.174;2023-05-29T12:40:14;26.60;36.40
3298;DHT22;1661;53.572;10.174;2023-05-29T12:42:41;26.80;34.90
3298;DHT22;1661;53.572;10.174;2023-05-29T12:45:09;27.00;36.00
3298;DHT22;1661;53.572;10.174;2023-05-29T12:47:36;26.80;34.40
3298;DHT22;1661;53.572;10.174;2023-05-29T12:50:22;26.80;36.60
3298;DHT22;1661;53.572;10.174;2023-05-29T12:52:56;26.80;37.10
3298;DHT22;1661;53.572;10.174;2023-05-29T12:55:25;26.80;36.20
3298;DHT22;1661;53.572;10.174;2023-05-29T12:57:52;27.00;38.20
3298;DHT22;1661;53.572;10.174;2023-05-29T13:00:20;27.30;37.40
3298;DHT22;1661;53.572;10.174;2023-05-29T13:02:47;27.50;34.30
3298;DHT22;1661;53.572;10.174;2023-05-29T13:05:14;27.50;35.80
3298;DHT22;1661;53.572;10.174;2023-05-29T13:07:47;27.60;35.60
3298;DHT22;1661;53.572;10.174;2023-05-29T13:10:14;27.60;36.40
3298;DHT22;1661;53.572;10.174;2023-05-29T13:12:42;27.70;35.20
3298;DHT22;1661;53.572;10.174;2023-05-29T13:15:11;27.70;34.00
3298;DHT22;1661;53.572;10.174;2023-05-29T13:17:43;27.70;34.70
3298;DHT22;1661;53.572;10.174;2023-05-29T13:20:11;27.80;34.20
3298;DHT22;1661;53.572;10.174;2023-05-29T13:22:38;28.00;36.10
3298;DHT22;1661;53.572;10.174;2023-05-29T13:25:07;28.00;33.50
3298;DHT22;1661;53.572;10.174;2023-05-29T13:27:35;27.90;35.00
3298;DHT22;1661;53.572;10.174;2023-05-29T13:30:08;27.80;35.20
3298;DHT22;1661;53.572;10.174;2023-05-29T13:32:35;27.80;35.00
3298;DHT22;1661;53.572;10.174;2023-05-29T13:35:02;27.60;34.30
3298;DHT22;1661;53.572;10.174;2023-05-29T13:37:29;27.40;35.80
3298;DHT22;1661;53.572;10.174;2023-05-29T13:39:56;27.40;37.90
3298;DHT22;1661;53.572;10.174;2023-05-29T13:42:23;27.60;36.60
3298;DHT22;1661;53.572;10.174;2023-05-29T13:44:51;27.70;33.00
3298;DHT22;1661;53.572;10.174;2023-05-29T13:47:19;27.90;34.80
3298;DHT22;1661;53.572;10.174;2023-05-29T13:49:45;27.80;37.90
3298;DHT22;1661;53.572;10.174;2023-05-29T13:52:15;27.60;33.20
3298;DHT22;1661;53.572;10.174;2023-05-29T13:54:43;27.50;34.10
3298;DHT22;1661;53.572;10.174;2023-05-29T13:57:10;27.40;34.60
3298;DHT22;1661;53.572;10.174;2023-05-29T13:59:37;27.50;36.60
3298;DHT22;1661;53.572;10.174;2023-05-29T14:02:04;27.70;37.80
3298;DHT22;1661;53.572;10.174;2023-05-29T14:04:32;27.40;34.00
3298;DHT22;1661;53.572;10.174;2023-05-29T14:06:59;27.20;38.50
3298;DHT22;1661;53.572;10.174;2023-05-29T14:09:26;27.20;37.60
3298;DHT22;1661;53.572;10.174;2023-05-29T14:11:58;27.30;35.00
3298;DHT22;1661;53.572;10.174;2023-05-29T14:14:25;27.20;31.70
3298;DHT22;1661;53.572;10.174;2023-05-29T14:16:53;27.30;33.60
3298;DHT22;1661;53.572;10.174;2023-05-29T14:19:20;27.30;34.40
3298;DHT22;1661;53.572;10.174;2023-05-29T14:21:48;27.00;32.00
3298;DHT22;1661;53.572;10.174;2023-05-29T14:24:15;27.20;38.20
3298;DHT22;1661;53.572;10.174;2023-05-29T14:26:43;27.30;36.10
3298;DHT22;1661;53.572;10.174;2023-05-29T14:29:12;27.50;35.20
3298;DHT22;1661;53.572;10.174;2023-05-29T14:31:40;27.70;36.50
3298;DHT22;1661;53.572;10.174;2023-05-29T14:34:12;27.50;36.00
3298;DHT22;1661;53.572;10.174;2023-05-29T14:36:39;27.60;38.90
3298;DHT22;1661;53.572;10.174;2023-05-29T14:39:08;27.50;32.80
3298;DHT22;1661;53.572;10.174;2023-05-29T14:41:35;27.30;35.20
3298;DHT22;1661;53.572;10.174;2023-05-29T14:44:01;27.20;34.40
3298;DHT22;1661;53.572;10.174;2023-05-29T14:46:28;27.00;43.50
3298;DHT22;1661;53.572;10.174;2023-05-29T14:48:57;27.10;35.70
3298;DHT22;1661;53.572;10.174;2023-05-29T14:51:24;27.30;37.40
3298;DHT22;1661;53.572;10.174;2023-05-29T14:53:51;27.30;34.60
3298;DHT22;1661;53.572;10.174;2023-05-29T14:56:19;27.30;33.00
3298;DHT22;1661;53.572;10.174;2023-05-29T14:58:46;27.20;39.70
3298;DHT22;1661;53.572;10.174;2023-05-29T15:01:16;27.10;36.20
3298;DHT22;1661;53.572;10.174;2023-05-29T15:03:43;26.90;38.00
3298;DHT22;1661;53.572;10.174;2023-05-29T15:06:10;27.00;37.20
3298;DHT22;1661;53.572;10.174;2023-05-29T15:08:38;26.90;33.30
3298;DHT22;1661;53.572;10.174;2023-05-29T15:11:09;26.80;37.90
3298;DHT22;1661;53.572;10.174;2023-05-29T15:13:39;26.80;35.10
3298;DHT22;1661;53.572;10.174;2023-05-29T15:16:06;27.00;40.20
3298;DHT22;1661;53.572;10.174;2023-05-29T15:18:33;26.80;35.10
3298;DHT22;1661;53.572;10.174;2023-05-29T15:21:00;26.70;35.50
3298;DHT22;1661;53.572;10.174;2023-05-29T15:23:27;26.50;34.70
3298;DHT22;1661;53.572;10.174;2023-05-29T15:25:54;26.50;36.80
3298;DHT22;1661;53.572;10.174;2023-05-29T15:28:23;26.10;33.40
3298;DHT22;1661;53.572;10.174;2023-05-29T15:30:51;25.80;36.00
3298;DHT22;1661;53.572;10.174;2023-05-29T15:33:18;25.60;36.80
3298;DHT22;1661;53.572;10.174;2023-05-29T15:35:45;25.30;33.70
3298;DHT22;1661;53.572;10.174;2023-05-29T15:38:12;25.20;35.60
3298;DHT22;1661;53.572;10.174;2023-05-29T15:40:45;25.30;41.40
3298;DHT22;1661;53.572;10.174;2023-05-29T15:43:12;25.50;37.00
3298;DHT22;1661;53.572;10.174;2023-05-29T15:45:39;25.70;41.20
3298;DHT22;1661;53.572;10.174;2023-05-29T15:48:07;25.80;41.50
3298;DHT22;1661;53.572;10.174;2023-05-29T15:50:34;26.00;38.60
3298;DHT22;1661;53.572;10.174;2023-05-29T15:53:00;26.00;38.10
3298;DHT22;1661;53.572;10.174;2023-05-29T15:55:27;26.00;35.60